sensor_id;sensor_type;location;lat;lon;timestamp;pressure;altitude;pressure_sealevel;temperature;humidity
7178;BME280;3630;42.146;24.756;2023-03-05T00:01:18;99089.75;;;7.06;97.48
7178;BME280;3630;42.146;24.756;2023-03-05T00:03:48;99085.44;;;7.02;98.22
7178;BME280;3630;42.146;24.756;2023-03-05T00:06:16;99059.50;;;6.87;98.07
7178;BME280;3630;42.146;24.756;2023-03-05T00:08:43;99088.72;;;6.98;98.50
7178;BME280;3630;42.146;24.756;2023-03-05T00:11:11;99087.94;;;7.00;98.01
7178;BME280;3630;42.146;24.756;2023-03-05T00:13:39;99086.28;;;7.02;98.21
7178;BME280;3630;42.146;24.756;2023-03-05T00:16:07;99093.19;;;7.06;97.34
7178;BME280;3630;42.146;24.756;2023-03-05T00:18:35;99091.50;;;7.07;97.14
7178;BME280;3630;42.146;24.756;2023-03-05T00:21:04;99088.22;;;7.12;97.20
7178;BME280;3630;42.146;24.756;2023-03-05T00:23:31;99083.16;;;7.14;97.26
7178;BME280;3630;42.146;24.756;2023-03-05T00:26:00;99085.72;;;7.14;97.21
7178;BME280;3630;42.146;24.756;2023-03-05T00:28:28;99075.50;;;7.14;96.57
7178;BME280;3630;42.146;24.756;2023-03-05T00:30:58;99069.59;;;7.17;96.65
7178;BME280;3630;42.146;24.756;2023-03-05T00:33:25;99075.53;;;7.17;96.89
7178;BME280;3630;42.146;24.756;2023-03-05T00:35:52;99067.06;;;7.18;96.83
7178;BME280;3630;42.146;24.756;2023-03-05T00:38:20;99058.66;;;7.22;97.25
7178;BME280;3630;42.146;24.756;2023-03-05T00:40:49;99059.53;;;7.24;97.21
7178;BME280;3630;42.146;24.756;2023-03-05T00:43:16;99059.38;;;7.17;97.11
7178;BME280;3630;42.146;24.756;2023-03-05T00:45:43;99064.59;;;7.21;97.54
7178;BME280;3630;42.146;24.756;2023-03-05T00:48:10;99051.00;;;7.22;96.43
7178;BME280;3630;42.146;24.756;2023-03-05T00:50:36;99055.16;;;7.19;95.72
7178;BME280;3630;42.146;24.756;2023-03-05T00:53:03;99055.88;;;7.13;95.91
7178;BME280;3630;42.146;24.756;2023-03-05T00:55:31;99053.19;;;7.07;95.65
7178;BME280;3630;42.146;24.756;2023-03-05T00:58:00;99048.72;;;6.98;96.72
7178;BME280;3630;42.146;24.756;2023-03-05T01:00:27;99044.34;;;6.93;96.37
7178;BME280;3630;42.146;24.756;2023-03-05T01:02:54;99045.00;;;6.84;97.16
7178;BME280;3630;42.146;24.756;2023-03-05T01:05:20;99044.00;;;6.78;97.18
7178;BME280;3630;42.146;24.756;2023-03-05T01:07:51;99047.41;;;6.78;97.15
7178;BME280;3630;42.146;24.756;2023-03-05T01:10:18;99048.19;;;6.76;97.71
7178;BME280;3630;42.146;24.756;2023-03-05T01:12:46;99041.53;;;6.82;97.97
7178;BME280;3630;42.146;24.756;2023-03-05T01:15:13;99050.22;;;6.89;97.76
7178;BME280;3630;42.146;24.756;2023-03-05T01:17:40;99050.31;;;6.93;97.24
7178;BME280;3630;42.146;24.756;2023-03-05T01:20:08;99042.72;;;6.95;97.24
7178;BME280;3630;42.146;24.756;2023-03-05T01:22:35;99035.88;;;6.95;97.33
7178;BME280;3630;42.146;24.756;2023-03-05T01:25:02;99042.88;;;7.02;96.82
7178;BME280;3630;42.146;24.756;2023-03-05T01:27:29;99045.38;;;7.01;96.31
7178;BME280;3630;42.146;24.756;2023-03-05T01:29:57;99046.31;;;7.04;96.31
7178;BME280;3630;42.146;24.756;2023-03-05T01:32:24;99037.78;;;7.04;96.24
7178;BME280;3630;42.146;24.756;2023-03-05T01:34:51;99027.44;;;6.98;95.79
7178;BME280;3630;42.146;24.756;2023-03-05T01:37:18;99030.06;;;7.01;95.54
7178;BME280;3630;42.146;24.756;2023-03-05T01:39:45;99037.00;;;7.06;95.81
7178;BME280;3630;42.146;24.756;2023-03-05T01:42:11;99033.56;;;7.06;94.93
7178;BME280;3630;42.146;24.756;2023-03-05T01:44:38;99038.66;;;7.04;94.69
7178;BME280;3630;42.146;24.756;2023-03-05T01:47:06;99027.44;;;6.98;95.42
7178;BME280;3630;42.146;24.756;2023-03-05T01:49:35;99015.13;;;6.80;95.54
7178;BME280;3630;42.146;24.756;2023-03-05T01:52:05;99026.94;;;6.77;95.16
7178;BME280;3630;42.146;24.756;2023-03-05T01:54:36;99029.56;;;6.78;95.43
7178;BME280;3630;42.146;24.756;2023-03-05T01:57:08;99020.16;;;6.79;95.55
7178;BME280;3630;42.146;24.756;2023-03-05T01:59:38;99021.84;;;6.77;95.13
7178;BME280;3630;42.146;24.756;2023-03-05T02:02:08;99018.47;;;6.78;95.60
7178;BME280;3630;42.146;24.756;2023-03-05T02:04:38;99028.75;;;6.81;95.34
7178;BME280;3630;42.146;24.756;2023-03-05T02:07:07;99017.63;;;6.79;95.52
7178;BME280;3630;42.146;24.756;2023-03-05T02:09:37;98989.19;;;6.64;95.75
7178;BME280;3630;42.146;24.756;2023-03-05T02:12:04;99013.63;;;6.90;95.49
7178;BME280;3630;42.146;24.756;2023-03-05T02:14:31;99008.66;;;6.96;95.96
7178;BME280;3630;42.146;24.756;2023-03-05T02:16:58;99012.97;;;6.98;96.08
7178;BME280;3630;42.146;24.756;2023-03-05T02:19:27;99012.19;;;7.01;96.24
7178;BME280;3630;42.146;24.756;2023-03-05T02:21:55;99004.56;;;7.02;95.76
7178;BME280;3630;42.146;24.756;2023-03-05T02:24:39;99010.59;;;7.06;96.20
7178;BME280;3630;42.146;24.756;2023-03-05T02:27:06;99008.03;;;7.06;95.73
7178;BME280;3630;42.146;24.756;2023-03-05T02:29:34;99009.81;;;7.08;96.03
7178;BME280;3630;42.146;24.756;2023-03-05T02:32:03;99011.50;;;7.08;95.25
7178;BME280;3630;42.146;24.756;2023-03-05T02:34:31;99015.84;;;7.12;95.44
7178;BME280;3630;42.146;24.756;2023-03-05T02:36:59;99012.56;;;7.18;94.71
7178;BME280;3630;42.146;24.756;2023-03-05T02:39:28;99005.63;;;7.12;94.26
7178;BME280;3630;42.146;24.756;2023-03-05T02:41:55;99004.81;;;7.14;94.82
7178;BME280;3630;42.146;24.756;2023-03-05T02:44:22;98998.06;;;7.17;94.91
7178;BME280;3630;42.146;24.756;2023-03-05T02:46:49;99002.41;;;7.21;94.46
7178;BME280;3630;42.146;24.756;2023-03-05T02:49:16;99004.22;;;7.25;94.46
7178;BME280;3630;42.146;24.756;2023-03-05T02:51:43;98995.75;;;7.27;94.44
7178;BME280;3630;42.146;24.756;2023-03-05T02:54:11;98991.53;;;7.29;94.40
7178;BME280;3630;42.146;24.756;2023-03-05T02:56:38;99000.81;;;7.26;93.78
7178;BME280;3630;42.146;24.756;2023-03-05T02:59:05;98998.44;;;7.33;93.72
7178;BME280;3630;42.146;24.756;2023-03-05T03:01:31;99000.91;;;7.30;92.64
7178;BME280;3630;42.146;24.756;2023-03-05T03:03:58;99009.38;;;7.28;92.09
7178;BME280;3630;42.146;24.756;2023-03-05T03:06:25;99012.81;;;7.30;92.01
7178;BME280;3630;42.146;24.756;2023-03-05T03:08:52;99008.53;;;7.27;91.81
7178;BME280;3630;42.146;24.756;2023-03-05T03:11:20;99019.53;;;7.25;92.13
7178;BME280;3630;42.146;24.756;2023-03-05T03:13:47;99004.06;;;7.19;91.85
7178;BME280;3630;42.146;24.756;2023-03-05T03:16:14;99012.59;;;7.19;91.47
7178;BME280;3630;42.146;24.756;2023-03-05T03:18:41;99004.03;;;7.17;91.20
7178;BME280;3630;42.146;24.756;2023-03-05T03:21:15;99003.97;;;7.14;90.90
7178;BME280;3630;42.146;24.756;2023-03-05T03:23:42;98998.81;;;7.12;90.32
7178;BME280;3630;42.146;24.756;2023-03-05T03:26:09;98996.06;;;7.03;90.46
7178;BME280;3630;42.146;24.756;2023-03-05T03:28:37;99004.72;;;7.10;90.47
7178;BME280;3630;42.146;24.756;2023-03-05T03:31:04;98989.34;;;7.07;90.91
7178;BME280;3630;42.146;24.756;2023-03-05T03:33:31;98999.56;;;7.07;90.90
7178;BME280;3630;42.146;24.756;2023-03-05T03:35:57;98991.88;;;7.05;90.78
7178;BME280;3630;42.146;24.756;2023-03-05T03:38:24;98996.06;;;7.03;91.55
7178;BME280;3630;42.146;24.756;2023-03-05T03:40:51;98994.50;;;7.08;91.28
7178;BME280;3630;42.146;24.756;2023-03-05T03:43:18;98991.00;;;7.05;90.95
7178;BME280;3630;42.146;24.756;2023-03-05T03:45:46;99003.03;;;7.10;92.09
7178;BME280;3630;42.146;24.756;2023-03-05T03:48:13;98995.41;;;7.12;91.91
7178;BME280;3630;42.146;24.756;2023-03-05T03:50:40;98991.00;;;7.05;91.63
7178;BME280;3630;42.146;24.756;2023-03-05T03:53:08;98994.31;;;7.01;91.80
7178;BME280;3630;42.146;24.756;2023-03-05T03:55:39;98992.53;;;6.98;92.05
7178;BME280;3630;42.146;24.756;2023-03-05T03:58:06;98980.56;;;6.94;92.76
7178;BME280;3630;42.146;24.756;2023-03-05T04:00:32;98907.06;;;6.42;92.70
7178;BME280;3630;42.146;24.756;2023-03-05T04:03:01;98987.13;;;6.85;93.02
7178;BME280;3630;42.146;24.756;2023-03-05T04:05:27;98994.72;;;6.82;93.47
7178;BME280;3630;42.146;24.756;2023-03-05T04:07:54;98986.81;;;6.71;93.64
7178;BME280;3630;42.146;24.756;2023-03-05T04:10:22;99000.44;;;6.70;93.64
7178;BME280;3630;42.146;24.756;2023-03-05T04:12:49;99000.34;;;6.67;94.49
7178;BME280;3630;42.146;24.756;2023-03-05T04:15:16;98996.94;;;6.67;93.77
7178;BME280;3630;42.146;24.756;2023-03-05T04:17:43;98998.53;;;6.63;94.02
7178;BME280;3630;42.146;24.756;2023-03-05T04:20:12;98998.44;;;6.59;93.30
7178;BME280;3630;42.146;24.756;2023-03-05T04:22:38;99006.91;;;6.56;92.56
7178;BME280;3630;42.146;24.756;2023-03-05T04:25:06;99001.00;;;6.59;93.00
7178;BME280;3630;42.146;24.756;2023-03-05T04:27:34;98986.41;;;6.54;92.78
7178;BME280;3630;42.146;24.756;2023-03-05T04:30:02;98982.09;;;6.50;92.71
7178;BME280;3630;42.146;24.756;2023-03-05T04:32:29;99000.22;;;6.63;92.60
7178;BME280;3630;42.146;24.756;2023-03-05T04:34:56;99001.16;;;6.65;91.91
7178;BME280;3630;42.146;24.756;2023-03-05T04:37:24;99001.09;;;6.63;91.54
7178;BME280;3630;42.146;24.756;2023-03-05T04:39:51;99002.69;;;6.60;90.45
7178;BME280;3630;42.146;24.756;2023-03-05T04:42:18;99003.56;;;6.60;90.95
7178;BME280;3630;42.146;24.756;2023-03-05T04:44:46;99006.19;;;6.63;91.43
7178;BME280;3630;42.146;24.756;2023-03-05T04:47:12;99004.53;;;6.65;91.20
7178;BME280;3630;42.146;24.756;2023-03-05T04:49:39;98994.31;;;6.64;90.86
7178;BME280;3630;42.146;24.756;2023-03-05T04:52:06;99001.16;;;6.66;90.56
7178;BME280;3630;42.146;24.756;2023-03-05T04:54:34;98997.00;;;6.70;90.76
7178;BME280;3630;42.146;24.756;2023-03-05T04:57:01;98994.47;;;6.70;90.49
7178;BME280;3630;42.146;24.756;2023-03-05T04:59:28;99005.41;;;6.66;90.46
7178;BME280;3630;42.146;24.756;2023-03-05T05:01:55;99008.03;;;6.69;90.85
7178;BME280;3630;42.146;24.756;2023-03-05T05:04:22;99002.84;;;6.64;90.62
7178;BME280;3630;42.146;24.756;2023-03-05T05:06:49;99004.50;;;6.64;90.73
7178;BME280;3630;42.146;24.756;2023-03-05T05:09:16;98996.09;;;6.68;90.59
7178;BME280;3630;42.146;24.756;2023-03-05T05:11:44;99005.63;;;6.75;90.69
7178;BME280;3630;42.146;24.756;2023-03-05T05:14:10;99007.53;;;6.83;90.61
7178;BME280;3630;42.146;24.756;2023-03-05T05:16:37;99006.59;;;6.80;89.84
7178;BME280;3630;42.146;24.756;2023-03-05T05:19:04;99001.59;;;6.84;90.43
7178;BME280;3630;42.146;24.756;2023-03-05T05:21:31;99006.81;;;6.89;89.65
7178;BME280;3630;42.146;24.756;2023-03-05T05:23:57;99002.50;;;6.86;89.90
7178;BME280;3630;42.146;24.756;2023-03-05T05:26:24;99008.53;;;6.90;89.37
7178;BME280;3630;42.146;24.756;2023-03-05T05:28:52;99012.63;;;6.83;89.70
7178;BME280;3630;42.146;24.756;2023-03-05T05:31:19;99013.56;;;6.87;90.27
7178;BME280;3630;42.146;24.756;2023-03-05T05:33:46;99022.22;;;6.93;90.37
7178;BME280;3630;42.146;24.756;2023-03-05T05:36:15;98983.31;;;6.66;90.18
7178;BME280;3630;42.146;24.756;2023-03-05T05:38:43;99016.91;;;6.84;89.58
7178;BME280;3630;42.146;24.756;2023-03-05T05:41:12;99022.00;;;6.84;90.43
7178;BME280;3630;42.146;24.756;2023-03-05T05:43:39;99022.22;;;6.92;90.03
7178;BME280;3630;42.146;24.756;2023-03-05T05:46:11;99026.47;;;6.93;89.59
7178;BME280;3630;42.146;24.756;2023-03-05T05:48:38;99036.81;;;6.97;88.68
7178;BME280;3630;42.146;24.756;2023-03-05T05:51:05;99031.72;;;6.99;88.54
7178;BME280;3630;42.146;24.756;2023-03-05T05:53:32;99041.19;;;7.03;88.73
7178;BME280;3630;42.146;24.756;2023-03-05T05:55:59;99033.63;;;7.07;88.08
7178;BME280;3630;42.146;24.756;2023-03-05T05:58:26;99038.66;;;7.04;87.86
7178;BME280;3630;42.146;24.756;2023-03-05T06:00:53;99040.34;;;7.04;87.45
7178;BME280;3630;42.146;24.756;2023-03-05T06:03:21;99044.63;;;7.05;87.64
7178;BME280;3630;42.146;24.756;2023-03-05T06:05:48;99050.84;;;7.16;88.40
7178;BME280;3630;42.146;24.756;2023-03-05T06:08:16;99044.25;;;7.26;88.09
7178;BME280;3630;42.146;24.756;2023-03-05T06:10:43;99049.66;;;7.39;87.73
7178;BME280;3630;42.146;24.756;2023-03-05T06:13:10;99048.91;;;7.43;87.41
7178;BME280;3630;42.146;24.756;2023-03-05T06:15:36;99049.69;;;7.41;87.63
7178;BME280;3630;42.146;24.756;2023-03-05T06:18:03;99047.22;;;7.45;87.59
7178;BME280;3630;42.146;24.756;2023-03-05T06:20:31;99041.28;;;7.46;87.94
7178;BME280;3630;42.146;24.756;2023-03-05T06:22:58;99037.88;;;7.46;87.75
7178;BME280;3630;42.146;24.756;2023-03-05T06:25:25;99044.59;;;7.42;87.50
7178;BME280;3630;42.146;24.756;2023-03-05T06:27:52;99045.41;;;7.40;87.67
7178;BME280;3630;42.146;24.756;2023-03-05T06:30:18;99059.03;;;7.39;87.67
7178;BME280;3630;42.146;24.756;2023-03-05T06:32:45;99058.19;;;7.40;87.73
7178;BME280;3630;42.146;24.756;2023-03-05T06:35:12;99054.00;;;7.43;88.52
7178;BME280;3630;42.146;24.756;2023-03-05T06:37:40;99049.84;;;7.47;88.43
7178;BME280;3630;42.146;24.756;2023-03-05T06:40:08;99053.34;;;7.52;88.62
7178;BME280;3630;42.146;24.756;2023-03-05T06:42:35;99059.34;;;7.54;88.47
7178;BME280;3630;42.146;24.756;2023-03-05T06:45:03;99053.44;;;7.56;88.05
7178;BME280;3630;42.146;24.756;2023-03-05T06:47:30;99056.88;;;7.58;87.74
7178;BME280;3630;42.146;24.756;2023-03-05T06:49:56;99057.88;;;7.66;87.97
7178;BME280;3630;42.146;24.756;2023-03-05T06:52:23;99058.03;;;7.72;86.95
7178;BME280;3630;42.146;24.756;2023-03-05T06:54:51;99050.47;;;7.79;86.66
7178;BME280;3630;42.146;24.756;2023-03-05T06:57:20;99049.00;;;7.90;86.64
7178;BME280;3630;42.146;24.756;2023-03-05T06:59:47;99051.75;;;7.99;85.88
7178;BME280;3630;42.146;24.756;2023-03-05T07:02:13;99048.28;;;7.97;84.97
7178;BME280;3630;42.146;24.756;2023-03-05T07:04:40;99039.66;;;7.92;85.26
7178;BME280;3630;42.146;24.756;2023-03-05T07:07:07;99041.47;;;7.97;85.08
7178;BME280;3630;42.146;24.756;2023-03-05T07:09:34;99033.91;;;8.03;85.04
7178;BME280;3630;42.146;24.756;2023-03-05T07:12:08;99047.50;;;8.01;85.05
7178;BME280;3630;42.146;24.756;2023-03-05T07:14:36;99042.38;;;7.99;85.33
7178;BME280;3630;42.146;24.756;2023-03-05T07:17:04;99046.78;;;8.08;85.16
7178;BME280;3630;42.146;24.756;2023-03-05T07:19:31;99046.78;;;8.08;84.89
7178;BME280;3630;42.146;24.756;2023-03-05T07:21:57;99053.88;;;8.21;84.99
7178;BME280;3630;42.146;24.756;2023-03-05T07:24:24;99049.78;;;8.29;84.99
7178;BME280;3630;42.146;24.756;2023-03-05T07:26:54;99046.41;;;8.32;84.19
7178;BME280;3630;42.146;24.756;2023-03-05T07:29:22;99034.50;;;8.35;84.27
7178;BME280;3630;42.146;24.756;2023-03-05T07:31:49;99041.66;;;8.54;84.03
7178;BME280;3630;42.146;24.756;2023-03-05T07:34:16;99042.00;;;8.74;83.50
7178;BME280;3630;42.146;24.756;2023-03-05T07:36:43;99036.13;;;8.79;82.85
7178;BME280;3630;42.146;24.756;2023-03-05T07:39:11;99036.34;;;8.93;82.47
7178;BME280;3630;42.146;24.756;2023-03-05T07:41:38;99038.31;;;9.12;81.66
7178;BME280;3630;42.146;24.756;2023-03-05T07:44:05;99046.19;;;9.24;81.32
7178;BME280;3630;42.146;24.756;2023-03-05T07:46:33;99036.19;;;9.41;80.69
7178;BME280;3630;42.146;24.756;2023-03-05T07:49:00;99035.63;;;9.63;79.94
7178;BME280;3630;42.146;24.756;2023-03-05T07:51:27;99038.50;;;9.90;79.03
7178;BME280;3630;42.146;24.756;2023-03-05T07:53:55;99023.31;;;10.07;77.56
7178;BME280;3630;42.146;24.756;2023-03-05T07:56:24;99028.81;;;10.42;75.89
7178;BME280;3630;42.146;24.756;2023-03-05T07:58:51;99022.19;;;10.65;74.48
7178;BME280;3630;42.146;24.756;2023-03-05T08:01:18;99019.78;;;10.91;73.21
7178;BME280;3630;42.146;24.756;2023-03-05T08:03:46;99012.25;;;11.12;71.92
7178;BME280;3630;42.146;24.756;2023-03-05T08:06:13;99018.28;;;11.21;71.91
7178;BME280;3630;42.146;24.756;2023-03-05T08:08:40;99014.84;;;11.16;71.06
7178;BME280;3630;42.146;24.756;2023-03-05T08:11:09;99005.53;;;11.37;69.29
7178;BME280;3630;42.146;24.756;2023-03-05T08:13:37;99011.56;;;11.45;68.58
7178;BME280;3630;42.146;24.756;2023-03-05T08:16:04;98997.94;;;11.67;67.92
7178;BME280;3630;42.146;24.756;2023-03-05T08:18:31;99003.19;;;11.88;67.94
7178;BME280;3630;42.146;24.756;2023-03-05T08:20:59;98996.38;;;12.17;67.15
7178;BME280;3630;42.146;24.756;2023-03-05T08:23:27;98995.56;;;12.36;66.36
7178;BME280;3630;42.146;24.756;2023-03-05T08:25:54;98997.28;;;12.43;64.53
7178;BME280;3630;42.146;24.756;2023-03-05T08:28:20;98995.59;;;12.52;64.50
7178;BME280;3630;42.146;24.756;2023-03-05T08:30:48;98994.72;;;12.56;63.96
7178;BME280;3630;42.146;24.756;2023-03-05T08:33:15;98975.81;;;12.51;63.42
7178;BME280;3630;42.146;24.756;2023-03-05T08:35:42;98993.84;;;12.67;63.57
7178;BME280;3630;42.146;24.756;2023-03-05T08:38:11;98989.56;;;12.71;63.70
7178;BME280;3630;42.146;24.756;2023-03-05T08:40:37;98990.41;;;12.46;64.39
7178;BME280;3630;42.146;24.756;2023-03-05T08:43:04;98988.69;;;12.40;65.49
7178;BME280;3630;42.146;24.756;2023-03-05T08:45:31;98950.91;;;12.27;65.22
7178;BME280;3630;42.146;24.756;2023-03-05T08:47:58;98978.41;;;12.46;64.50
7178;BME280;3630;42.146;24.756;2023-03-05T08:50:25;98975.81;;;12.43;64.63
7178;BME280;3630;42.146;24.756;2023-03-05T08:52:52;98975.81;;;12.35;65.58
7178;BME280;3630;42.146;24.756;2023-03-05T08:55:22;98973.22;;;12.51;65.46
7178;BME280;3630;42.146;24.756;2023-03-05T08:57:49;98972.38;;;12.62;65.21
7178;BME280;3630;42.146;24.756;2023-03-05T09:00:16;98973.22;;;12.75;65.12
7178;BME280;3630;42.146;24.756;2023-03-05T09:02:43;98967.19;;;12.77;63.78
7178;BME280;3630;42.146;24.756;2023-03-05T09:05:10;98936.31;;;12.61;63.60
7178;BME280;3630;42.146;24.756;2023-03-05T09:07:37;98967.22;;;12.91;63.39
7178;BME280;3630;42.146;24.756;2023-03-05T09:10:05;98971.50;;;12.90;62.77
7178;BME280;3630;42.146;24.756;2023-03-05T09:12:35;98966.31;;;12.99;62.51
7178;BME280;3630;42.146;24.756;2023-03-05T09:15:02;98968.06;;;12.93;62.05
7178;BME280;3630;42.146;24.756;2023-03-05T09:17:29;98968.09;;;12.82;62.42
7178;BME280;3630;42.146;24.756;2023-03-05T09:19:56;98960.31;;;12.96;62.11
7178;BME280;3630;42.146;24.756;2023-03-05T09:22:23;98958.59;;;12.89;63.04
7178;BME280;3630;42.146;24.756;2023-03-05T09:24:49;98954.31;;;12.89;62.54
7178;BME280;3630;42.146;24.756;2023-03-05T09:27:16;98953.47;;;12.90;62.86
7178;BME280;3630;42.146;24.756;2023-03-05T09:29:44;98960.28;;;13.05;62.96
7178;BME280;3630;42.146;24.756;2023-03-05T09:32:11;98947.41;;;13.03;61.88
7178;BME280;3630;42.146;24.756;2023-03-05T09:34:38;98948.28;;;12.98;61.92
7178;BME280;3630;42.146;24.756;2023-03-05T09:37:04;98946.56;;;13.15;60.53
7178;BME280;3630;42.146;24.756;2023-03-05T09:39:31;98938.81;;;13.18;59.38
7178;BME280;3630;42.146;24.756;2023-03-05T09:45:11;98930.13;;;13.37;58.51
7178;BME280;3630;42.146;24.756;2023-03-05T09:47:54;98927.44;;;13.60;57.04
7178;BME280;3630;42.146;24.756;2023-03-05T09:50:36;98930.03;;;13.62;57.37
7178;BME280;3630;42.146;24.756;2023-03-05T09:53:11;98927.34;;;13.78;55.82
7178;BME280;3630;42.146;24.756;2023-03-05T09:55:41;98926.41;;;13.91;54.11
7178;BME280;3630;42.146;24.756;2023-03-05T09:58:12;98917.81;;;13.92;53.52
7178;BME280;3630;42.146;24.756;2023-03-05T10:00:43;98923.88;;;13.87;53.85
7178;BME280;3630;42.146;24.756;2023-03-05T10:03:14;98916.09;;;13.90;54.53
7178;BME280;3630;42.146;24.756;2023-03-05T10:05:47;98916.19;;;13.69;55.06
7178;BME280;3630;42.146;24.756;2023-03-05T10:08:22;98911.06;;;13.70;55.27
7178;BME280;3630;42.146;24.756;2023-03-05T10:10:53;98908.41;;;13.81;54.43
7178;BME280;3630;42.146;24.756;2023-03-05T10:13:23;98899.78;;;13.82;54.64
7178;BME280;3630;42.146;24.756;2023-03-05T10:15:58;98896.47;;;13.57;55.20
7178;BME280;3630;42.146;24.756;2023-03-05T10:18:34;98873.22;;;13.63;55.61
7178;BME280;3630;42.146;24.756;2023-03-05T10:21:04;98887.69;;;13.90;54.51
7178;BME280;3630;42.146;24.756;2023-03-05T10:23:46;98880.69;;;14.04;53.99
7178;BME280;3630;42.146;24.756;2023-03-05T10:26:23;98884.09;;;14.09;52.72
7178;BME280;3630;42.146;24.756;2023-03-05T10:29:00;98867.03;;;13.90;52.50
7178;BME280;3630;42.146;24.756;2023-03-05T10:31:44;98875.59;;;13.93;53.24
7178;BME280;3630;42.146;24.756;2023-03-05T10:34:38;98864.50;;;13.84;53.01
7178;BME280;3630;42.146;24.756;2023-03-05T10:37:20;98860.09;;;13.98;53.24
7178;BME280;3630;42.146;24.756;2023-03-05T10:40:10;98859.19;;;14.03;52.82
7178;BME280;3630;42.146;24.756;2023-03-05T10:42:44;98845.50;;;13.92;51.92
7178;BME280;3630;42.146;24.756;2023-03-05T10:45:17;98848.00;;;14.03;52.61
7178;BME280;3630;42.146;24.756;2023-03-05T10:47:49;98841.78;;;14.22;52.40
7178;BME280;3630;42.146;24.756;2023-03-05T10:50:19;98836.56;;;14.27;50.77
7178;BME280;3630;42.146;24.756;2023-03-05T10:52:50;98833.13;;;14.32;50.13
7178;BME280;3630;42.146;24.756;2023-03-05T10:55:21;98833.13;;;14.28;49.66
7178;BME280;3630;42.146;24.756;2023-03-05T10:57:48;98814.25;;;14.18;49.77
7178;BME280;3630;42.146;24.756;2023-03-05T11:00:20;98814.03;;;14.45;49.47
7178;BME280;3630;42.146;24.756;2023-03-05T11:02:58;98804.50;;;14.50;48.49
7178;BME280;3630;42.146;24.756;2023-03-05T11:05:45;98789.84;;;14.52;48.69
7178;BME280;3630;42.146;24.756;2023-03-05T11:08:28;98779.44;;;14.57;48.52
7178;BME280;3630;42.146;24.756;2023-03-05T11:11:12;98785.78;;;14.24;48.70
7178;BME280;3630;42.146;24.756;2023-03-05T11:13:49;98769.25;;;14.45;49.04
7178;BME280;3630;42.146;24.756;2023-03-05T11:16:19;98758.81;;;14.51;48.49
7178;BME280;3630;42.146;24.756;2023-03-05T11:18:48;98759.72;;;14.48;48.44
7178;BME280;3630;42.146;24.756;2023-03-05T11:21:21;98758.59;;;14.70;48.12
7178;BME280;3630;42.146;24.756;2023-03-05T11:24:07;98752.53;;;14.74;47.48
7178;BME280;3630;42.146;24.756;2023-03-05T11:26:45;98736.88;;;14.84;47.32
7178;BME280;3630;42.146;24.756;2023-03-05T11:29:17;98733.41;;;14.85;46.73
7178;BME280;3630;42.146;24.756;2023-03-05T11:31:44;98720.22;;;15.04;46.56
7178;BME280;3630;42.146;24.756;2023-03-05T11:34:25;98727.81;;;15.15;46.50
7178;BME280;3630;42.146;24.756;2023-03-05T11:37:01;98714.50;;;15.39;45.51
7178;BME280;3630;42.146;24.756;2023-03-05T11:39:31;98723.78;;;15.55;44.99
7178;BME280;3630;42.146;24.756;2023-03-05T11:42:02;98717.59;;;15.65;44.59
7178;BME280;3630;42.146;24.756;2023-03-05T11:44:33;98715.84;;;15.66;44.92
7178;BME280;3630;42.146;24.756;2023-03-05T11:47:15;98707.06;;;15.74;44.13
7178;BME280;3630;42.146;24.756;2023-03-05T11:49:45;98672.91;;;15.54;43.25
7178;BME280;3630;42.146;24.756;2023-03-05T11:52:17;98716.78;;;15.62;43.05
7178;BME280;3630;42.146;24.756;2023-03-05T11:54:52;98710.38;;;15.82;43.28
7178;BME280;3630;42.146;24.756;2023-03-05T11:57:23;98707.78;;;15.84;43.05
7178;BME280;3630;42.146;24.756;2023-03-05T11:59:51;98707.53;;;15.96;42.92
7178;BME280;3630;42.146;24.756;2023-03-05T12:02:22;98713.44;;;16.04;42.91
7178;BME280;3630;42.146;24.756;2023-03-05T12:04:51;98699.91;;;15.88;42.98
7178;BME280;3630;42.146;24.756;2023-03-05T12:07:25;98710.31;;;15.87;43.57
7178;BME280;3630;42.146;24.756;2023-03-05T12:09:56;98710.66;;;15.66;43.57
7178;BME280;3630;42.146;24.756;2023-03-05T12:12:38;98704.88;;;15.50;43.80
7178;BME280;3630;42.146;24.756;2023-03-05T12:15:36;98702.28;;;15.52;43.60
7178;BME280;3630;42.146;24.756;2023-03-05T12:18:16;98706.66;;;15.48;43.81
7178;BME280;3630;42.146;24.756;2023-03-05T12:20:49;98692.91;;;15.43;43.86
7178;BME280;3630;42.146;24.756;2023-03-05T12:23:20;98695.44;;;15.49;43.70
7178;BME280;3630;42.146;24.756;2023-03-05T12:25:48;98691.97;;;15.49;43.89
7178;BME280;3630;42.146;24.756;2023-03-05T12:28:51;98686.56;;;15.62;44.05
7178;BME280;3630;42.146;24.756;2023-03-05T12:31:04;98688.16;;;15.71;43.47
7178;BME280;3630;42.146;24.756;2023-03-05T12:33:35;98686.53;;;15.64;43.63
7178;BME280;3630;42.146;24.756;2023-03-05T12:39:45;98686.66;;;15.55;44.33
7178;BME280;3630;42.146;24.756;2023-03-05T12:42:45;98677.16;;;15.57;43.73
7178;BME280;3630;42.146;24.756;2023-03-05T12:45:23;98676.34;;;15.53;43.47
7178;BME280;3630;42.146;24.756;2023-03-05T12:50:57;98658.47;;;15.38;43.42
7178;BME280;3630;42.146;24.756;2023-03-05T12:53:24;98669.59;;;15.43;43.48
7178;BME280;3630;42.146;24.756;2023-03-05T12:55:57;98678.13;;;15.50;43.63
7178;BME280;3630;42.146;24.756;2023-03-05T12:58:38;98672.59;;;15.19;46.75
7178;BME280;3630;42.146;24.756;2023-03-05T13:01:15;98677.19;;;14.97;51.08
7178;BME280;3630;42.146;24.756;2023-03-05T13:03:49;98679.59;;;14.50;54.18
7178;BME280;3630;42.146;24.756;2023-03-05T13:06:26;98671.28;;;14.20;55.62
7178;BME280;3630;42.146;24.756;2023-03-05T13:08:55;98669.84;;;13.94;57.64
7178;BME280;3630;42.146;24.756;2023-03-05T13:11:24;98681.06;;;13.94;58.90
7178;BME280;3630;42.146;24.756;2023-03-05T13:13:52;98680.25;;;13.88;59.24
7178;BME280;3630;42.146;24.756;2023-03-05T13:16:22;98685.59;;;13.70;59.84
7178;BME280;3630;42.146;24.756;2023-03-05T13:18:50;98679.53;;;13.71;59.88
7178;BME280;3630;42.146;24.756;2023-03-05T13:21:18;98677.03;;;13.63;58.95
7178;BME280;3630;42.146;24.756;2023-03-05T13:23:47;98661.56;;;13.60;59.25
7178;BME280;3630;42.146;24.756;2023-03-05T13:26:24;98671.84;;;13.68;59.67
7178;BME280;3630;42.146;24.756;2023-03-05T13:29:10;98669.09;;;13.83;58.01
7178;BME280;3630;42.146;24.756;2023-03-05T13:31:41;98663.91;;;13.86;57.94
7178;BME280;3630;42.146;24.756;2023-03-05T13:34:14;98659.69;;;13.77;58.18
7178;BME280;3630;42.146;24.756;2023-03-05T13:36:46;98667.53;;;13.70;57.10
7178;BME280;3630;42.146;24.756;2023-03-05T13:39:18;98660.63;;;13.73;58.28